Time;durP1;ratioP1;P1;durP2;ratioP2;P2;SDS_P1;SDS_P2;PMS_P1;PMS_P2;Temp;Humidity;BMP_temperature;BMP_pressure;BME280_temperature;BME280_humidity;BME280_pressure;Samples;Min_cycle;Max_cycle;Signal;HPM_P1;HPM_P2
2022/12/05 00:01:30;;;;;;;10.55;4.80;;;;;;;-9.11;70.01;98397.00;6201089;28;20547;-67
2022/12/05 00:04:33;;;;;;;10.85;4.75;;;;;;;-9.10;70.16;98400.41;6201365;28;20046;-67
2022/12/05 00:07:35;;;;;;;6.43;4.63;;;;;;;-9.21;69.91;98400.00;6201121;28;20542;-67
2022/12/05 00:10:39;;;;;;;6.25;3.67;;;;;;;-9.15;70.13;98400.22;6200106;28;20425;-67
2022/12/05 00:13:43;;;;;;;7.30;4.43;;;;;;;-9.24;69.90;98397.34;6200979;28;20042;-67
2022/12/05 00:16:45;;;;;;;4.90;3.05;;;;;;;-9.26;69.96;98388.75;6200147;28;20050;-66
2022/12/05 00:19:46;;;;;;;7.78;3.63;;;;;;;-9.20;70.23;98394.09;6200094;28;20054;-66
2022/12/05 00:22:50;;;;;;;10.57;4.43;;;;;;;-9.32;70.08;98391.97;6200160;28;20420;-67
2022/12/05 00:25:56;;;;;;;10.80;4.68;;;;;;;-9.25;69.50;98403.28;6200835;28;20043;-66
2022/12/05 00:28:58;;;;;;;6.88;3.38;;;;;;;-9.33;69.93;98404.66;6199973;28;20584;-67
2022/12/05 00:32:02;;;;;;;11.57;4.65;;;;;;;-9.15;69.45;98390.03;6199892;28;20086;-67
2022/12/05 00:35:06;;;;;;;5.65;4.28;;;;;;;-9.23;69.43;98406.72;6200803;28;20540;-67
2022/12/05 00:38:09;;;;;;;6.28;4.03;;;;;;;-9.29;69.67;98391.19;6200632;28;20046;-67
2022/12/05 00:41:19;;;;;;;9.15;4.93;;;;;;;-9.42;69.67;98402.63;6200480;28;20038;-67
2022/12/05 00:44:25;;;;;;;3.10;2.83;;;;;;;-9.37;69.59;98392.59;6200348;28;20042;-67
2022/12/05 00:47:29;;;;;;;13.02;4.35;;;;;;;-9.39;69.76;98387.47;6200341;28;20047;-67
2022/12/05 00:50:31;;;;;;;6.75;4.00;;;;;;;-9.34;69.57;98392.72;6199534;28;20064;-66
2022/12/05 00:53:35;;;;;;;6.20;3.55;;;;;;;-9.44;69.66;98400.84;6199520;28;20049;-67
2022/12/05 00:56:39;;;;;;;12.80;4.25;;;;;;;-9.49;69.56;98386.22;6199769;28;20610;-67
2022/12/05 00:59:40;;;;;;;8.43;3.33;;;;;;;-9.38;69.50;98380.66;6199520;28;20050;-66
2022/12/05 01:02:41;;;;;;;13.73;5.10;;;;;;;-9.46;69.33;98393.13;6199382;28;20050;-67
2022/12/05 01:05:45;;;;;;;10.45;5.50;;;;;;;-9.45;69.38;98383.78;6199291;28;20061;-67
2022/12/05 01:08:52;;;;;;;10.98;4.68;;;;;;;-9.58;69.54;98383.34;6200197;28;20505;-68
2022/12/05 01:11:56;;;;;;;15.40;5.03;;;;;;;-9.54;69.49;98377.56;6198760;28;20425;-66
2022/12/05 01:14:58;;;;;;;17.77;5.40;;;;;;;-9.48;69.38;98384.56;6198837;28;20421;-68
2022/12/05 01:18:01;;;;;;;15.43;5.82;;;;;;;-9.48;69.33;98379.47;6199419;28;20058;-68
2022/12/05 01:21:04;;;;;;;23.65;7.68;;;;;;;-9.60;69.40;98381.53;6199098;28;20065;-67
2022/12/05 01:24:11;;;;;;;17.45;5.53;;;;;;;-9.64;69.29;98383.09;6199484;28;20046;-67
2022/12/05 01:27:17;;;;;;;21.63;5.13;;;;;;;-9.74;69.47;98381.00;6198843;28;20077;-67
2022/12/05 01:30:19;;;;;;;7.22;3.95;;;;;;;-9.76;69.43;98382.63;6199037;28;20045;-68
2022/12/05 01:33:20;;;;;;;21.00;6.18;;;;;;;-9.79;69.34;98379.97;6198734;28;20050;-66
2022/12/05 01:36:27;;;;;;;9.20;3.17;;;;;;;-9.86;69.39;98380.53;6198313;28;20046;-67
2022/12/05 01:39:28;;;;;;;11.50;5.88;;;;;;;-9.90;69.35;98383.78;6199040;28;20506;-67
2022/12/05 01:42:30;;;;;;;11.95;4.93;;;;;;;-9.92;69.50;98380.28;6199057;28;20041;-67
2022/12/05 01:45:39;;;;;;;16.55;5.45;;;;;;;-9.89;69.50;98382.97;6199048;28;20417;-67
2022/12/05 01:48:41;;;;;;;20.90;5.90;;;;;;;-9.90;69.56;98379.56;6197916;28;20433;-67
2022/12/05 01:51:47;;;;;;;12.68;5.18;;;;;;;-9.81;69.46;98374.81;6197412;28;20059;-67
2022/12/05 01:54:55;;;;;;;7.25;4.50;;;;;;;-9.79;69.16;98378.28;6198154;28;20525;-67
2022/12/05 01:58:04;;;;;;;15.38;5.00;;;;;;;-9.74;69.03;98375.91;6198663;28;20042;-67
2022/12/05 02:01:08;;;;;;;9.02;3.95;;;;;;;-9.66;68.84;98389.81;6197728;28;20054;-67
2022/12/05 02:04:12;;;;;;;7.65;3.38;;;;;;;-9.63;68.69;98384.81;6197357;28;20046;-66
2022/12/05 02:07:18;;;;;;;10.38;4.80;;;;;;;-9.59;68.51;98381.59;6198525;28;20043;-67
2022/12/05 02:10:19;;;;;;;7.23;4.43;;;;;;;-9.67;68.36;98383.00;6198411;28;20057;-66
2022/12/05 02:13:51;;;;;;;9.25;3.88;;;;;;;-9.65;68.40;98386.47;6198226;28;20050;-66
2022/12/05 02:17:12;;;;;;;10.35;4.68;;;;;;;-9.58;67.94;98373.13;6197586;28;20054;-66
2022/12/05 02:20:24;;;;;;;7.50;4.30;;;;;;;-9.55;67.81;98378.34;6197937;28;20074;-67
2022/12/05 02:24:01;;;;;;;7.97;3.75;;;;;;;-9.62;67.95;98378.94;6198025;28;20042;-68
2022/12/05 02:27:21;;;;;;;;;;;;;;;-9.67;67.86;98377.91;6198152;28;20050;-67
2022/12/05 02:30:53;;;;;;;6.68;4.18;;;;;;;-9.80;68.24;98375.66;6197782;28;19921;-66
2022/12/05 02:34:16;;;;;;;6.55;4.28;;;;;;;-9.67;68.28;98388.09;6197159;28;20058;-66
2022/12/05 02:37:33;;;;;;;9.10;5.10;;;;;;;-9.58;67.78;98378.25;6196863;28;20042;-67
2022/12/05 02:40:39;;;;;;;11.90;4.63;;;;;;;-9.78;68.25;98384.25;6197729;28;20050;-67
2022/12/05 02:43:53;;;;;;;4.55;3.50;;;;;;;-9.66;68.39;98384.72;6197401;28;20050;-67
2022/12/05 02:46:55;;;;;;;7.60;4.28;;;;;;;-9.82;68.35;98367.09;6197274;28;20129;-67
2022/12/05 02:50:00;;;;;;;8.75;3.90;;;;;;;-9.84;68.53;98376.38;6197083;28;20046;-68
2022/12/05 02:53:09;;;;;;;6.95;3.95;;;;;;;-9.88;68.67;98382.13;6196548;28;20055;-67
2022/12/05 02:56:11;;;;;;;8.10;3.72;;;;;;;-9.86;68.75;98377.97;6197291;28;20046;-68
2022/12/05 02:59:13;;;;;;;8.70;4.97;;;;;;;-9.87;68.70;98371.16;6197374;28;20061;-67
2022/12/05 03:02:21;;;;;;;;;;;;;;;-9.84;68.80;98378.91;6197454;28;20054;-67
2022/12/05 03:05:36;;;;;;;10.55;4.63;;;;;;;-9.95;68.94;98384.44;6196237;28;19947;-67
2022/12/05 03:08:47;;;;;;;8.75;4.35;;;;;;;-9.87;69.05;98381.34;6179210;28;20046;-67
2022/12/05 03:11:53;;;;;;;8.43;4.07;;;;;;;-9.74;68.70;98381.91;6196188;28;20112;-67
2022/12/05 03:15:05;;;;;;;10.48;4.53;;;;;;;-9.81;68.96;98379.03;6196424;28;20050;-66
2022/12/05 03:18:30;;;;;;;9.32;5.20;;;;;;;-9.70;68.95;98384.56;6196947;28;20061;-68
2022/12/05 03:21:42;;;;;;;8.85;4.53;;;;;;;-9.86;69.24;98383.94;6195799;28;20540;-66
2022/12/05 03:24:43;;;;;;;10.90;4.60;;;;;;;-9.76;69.01;98380.09;6197007;28;20042;-67
2022/12/05 03:28:03;;;;;;;8.30;4.13;;;;;;;-9.78;69.09;98379.16;6196916;28;20128;-69
2022/12/05 03:31:12;;;;;;;4.80;3.72;;;;;;;-9.60;68.94;98391.72;6196816;28;20049;-67
2022/12/05 03:34:21;;;;;;;6.75;4.10;;;;;;;-9.63;69.00;98389.94;6195951;28;20051;-67
2022/12/05 03:38:02;;;;;;;10.65;3.92;;;;;;;-9.72;69.43;98384.47;6196912;28;20121;-68
2022/12/05 03:41:13;;;;;;;14.60;9.45;;;;;;;-9.70;69.22;98390.50;6196663;28;20390;-68
2022/12/05 03:44:49;;;;;;;16.23;10.27;;;;;;;-9.70;69.41;98398.16;6195671;28;20058;-68
2022/12/05 03:48:04;;;;;;;10.38;7.80;;;;;;;-9.80;69.37;98375.66;6191819;28;20200;-67
2022/12/05 03:51:09;;;;;;;10.70;7.88;;;;;;;-9.69;69.71;98392.25;6195633;28;20054;-66
2022/12/05 03:54:48;;;;;;;12.88;7.57;;;;;;;-9.68;69.49;98396.53;6196725;28;20042;-67
2022/12/05 03:58:01;;;;;;;11.63;5.57;;;;;;;-9.63;69.74;98400.13;6193459;28;20548;-66
2022/12/05 04:01:09;;;;;;;10.93;5.75;;;;;;;-9.73;69.97;98387.84;6196047;28;20050;-66
2022/12/05 04:04:21;;;;;;;7.60;4.45;;;;;;;-9.61;70.10;98398.50;6196355;28;20058;-68
2022/12/05 04:07:27;;;;;;;6.28;4.90;;;;;;;-9.51;69.85;98403.16;6196504;28;20141;-67
2022/12/05 04:10:47;;;;;;;13.95;6.53;;;;;;;-9.54;69.91;98413.22;6196368;28;20089;-67
2022/12/05 04:13:59;;;;;;;12.63;6.45;;;;;;;-9.52;70.13;98416.69;6196366;28;20038;-67
2022/12/05 04:17:08;;;;;;;9.70;6.13;;;;;;;-9.54;70.46;98423.44;6200041;28;20043;-66
2022/12/05 04:27:26;;;;;;;11.80;4.63;;;;;;;-9.36;70.16;98424.94;6182915;28;20058;-67
2022/12/05 04:30:41;;;;;;;10.77;7.15;;;;;;;-9.45;70.22;98420.34;6200519;28;20242;-68
2022/12/05 04:33:49;;;;;;;11.25;6.82;;;;;;;-9.27;70.07;98422.72;6200624;28;20089;-66
2022/12/05 04:37:05;;;;;;;7.80;5.18;;;;;;;-9.00;69.71;98429.66;6200599;28;20050;-67
2022/12/05 04:40:29;;;;;;;14.77;6.88;;;;;;;-8.71;69.24;98426.50;6200150;28;20042;-68
2022/12/05 04:43:38;;;;;;;10.00;5.63;;;;;;;-8.60;68.58;98427.75;6199826;28;20136;-68
2022/12/05 04:46:42;;;;;;;17.38;8.48;;;;;;;-8.54;68.51;98431.34;6199668;28;20410;-68
2022/12/05 04:49:44;;;;;;;;;;;;;;;-8.27;68.68;98429.66;6200402;28;20543;-66
2022/12/05 04:52:52;;;;;;;14.35;7.10;;;;;;;-8.16;67.80;98430.91;6200186;28;19922;-67
2022/12/05 04:56:00;;;;;;;19.05;9.70;;;;;;;-8.09;67.60;98436.25;6200140;28;20046;-67
2022/12/05 04:59:02;;;;;;;15.30;8.00;;;;;;;-8.19;67.47;98442.72;6200167;28;20050;-67
2022/12/05 05:02:07;;;;;;;9.77;5.32;;;;;;;-8.16;67.08;98438.56;6199056;28;20437;-68
2022/12/05 05:05:12;;;;;;;9.05;5.38;;;;;;;-7.90;67.20;98441.13;6199006;28;20473;-68
2022/12/05 05:08:21;;;;;;;11.63;7.07;;;;;;;-7.64;66.07;98441.09;6199538;28;20066;-68
2022/12/05 05:11:27;;;;;;;15.70;8.98;;;;;;;-7.35;65.26;98437.78;6199787;28;20042;-67
2022/12/05 05:14:36;;;;;;;15.10;7.80;;;;;;;-7.30;64.98;98443.91;6199930;28;20046;-68
2022/12/05 05:17:39;;;;;;;22.73;10.43;;;;;;;-7.49;64.57;98450.13;6199451;28;20049;-69
2022/12/05 05:20:43;;;;;;;14.48;7.95;;;;;;;-7.73;65.41;98450.22;6199555;28;20042;-68
2022/12/05 05:23:48;;;;;;;16.58;8.85;;;;;;;-7.93;65.55;98454.66;6199539;28;20049;-67
2022/12/05 05:26:49;;;;;;;14.48;8.70;;;;;;;-8.14;65.82;98444.59;6198374;28;20049;-67
2022/12/05 05:29:50;;;;;;;19.10;9.63;;;;;;;-7.99;66.11;98445.94;6198752;28;20525;-68
2022/12/05 05:32:57;;;;;;;;;;;;;;;-8.03;65.97;98449.22;6199422;28;20046;-68
2022/12/05 05:36:10;;;;;;;19.15;8.48;;;;;;;-8.15;66.57;98455.66;6199110;28;19929;-68
2022/12/05 05:39:13;;;;;;;14.70;6.18;;;;;;;-8.15;66.27;98453.09;6181876;28;20498;-67
2022/12/05 05:42:15;;;;;;;15.73;7.50;;;;;;;-8.19;66.45;98451.22;6199121;28;20413;-68
2022/12/05 05:45:16;;;;;;;12.38;5.97;;;;;;;-8.20;66.38;98454.63;6198980;28;20046;-68
2022/12/05 05:48:20;;;;;;;6.88;3.80;;;;;;;-8.01;66.56;98455.22;6198900;28;20049;-68
2022/12/05 05:51:24;;;;;;;13.85;6.47;;;;;;;-8.03;65.77;98462.00;6197777;28;20062;-66
2022/12/05 05:54:29;;;;;;;8.30;5.55;;;;;;;-8.01;66.32;98455.22;6198665;28;20425;-66
2022/12/05 05:57:32;;;;;;;12.07;6.00;;;;;;;-7.87;66.08;98463.34;6197883;28;20532;-66
2022/12/05 06:00:39;;;;;;;10.88;5.22;;;;;;;-7.82;65.53;98470.34;6198466;28;20050;-67
2022/12/05 06:03:42;;;;;;;14.88;6.95;;;;;;;-7.71;65.22;98469.00;6198685;28;20165;-67
2022/12/05 06:06:48;;;;;;;7.30;4.18;;;;;;;-7.79;65.53;98470.44;6198450;28;20050;-68
2022/12/05 06:09:52;;;;;;;10.65;4.40;;;;;;;-7.80;65.12;98476.38;6198133;28;20046;-67
2022/12/05 06:12:56;;;;;;;4.68;2.83;;;;;;;-7.81;64.63;98474.66;6197795;28;20110;-67
2022/12/05 06:15:57;;;;;;;;;;;;;;;-7.93;63.98;98482.75;6197783;28;20050;-67
2022/12/05 06:19:03;;;;;;;18.30;7.47;;;;;;;-7.87;64.84;98484.66;6197952;28;19923;-68
2022/12/05 06:22:05;;;;;;;5.68;3.08;;;;;;;-7.59;64.19;98490.69;6198069;28;20049;-67
2022/12/05 06:25:09;;;;;;;4.53;3.40;;;;;;;-7.51;63.66;98486.69;6197038;28;20457;-66
2022/12/05 06:28:16;;;;;;;5.68;3.15;;;;;;;-7.45;63.57;98485.19;6198167;28;20046;-66
2022/12/05 06:31:22;;;;;;;6.13;3.30;;;;;;;-7.46;63.74;98488.56;6197082;28;20090;-68
2022/12/05 06:34:31;;;;;;;5.32;2.83;;;;;;;-7.51;62.92;98502.03;6197977;28;20046;-67
2022/12/05 06:37:37;;;;;;;7.15;2.63;;;;;;;-7.55;63.25;98493.41;6197273;28;20429;-67
2022/12/05 06:40:40;;;;;;;4.43;3.33;;;;;;;-7.41;62.57;98475.94;6197406;28;20042;-68
2022/12/05 06:43:44;;;;;;;2.47;2.22;;;;;;;-7.50;62.80;98473.06;6180175;28;20413;-67
2022/12/05 06:46:45;;;;;;;3.03;2.30;;;;;;;-7.46;62.13;98493.69;6197511;28;20042;-68
2022/12/05 06:49:47;;;;;;;5.72;2.40;;;;;;;-7.33;62.14;98489.84;6197190;28;20038;-68
2022/12/05 06:52:49;;;;;;;6.70;2.67;;;;;;;-7.16;61.76;98481.78;6197246;28;20046;-67
2022/12/05 06:56:07;;;;;;;5.47;2.50;;;;;;;-7.24;61.33;98500.34;6196628;28;20141;-68
2022/12/05 06:59:08;;;;;;;13.82;2.65;;;;;;;-7.44;61.63;98491.19;6196642;28;20576;-67
2022/12/05 07:02:14;;;;;;;4.15;3.03;;;;;;;-7.52;62.35;98495.19;6197330;28;20497;-67
2022/12/05 07:05:23;;;;;;;7.57;3.85;;;;;;;-7.42;62.33;98504.88;6197367;28;20043;-68
2022/12/05 07:08:28;;;;;;;6.63;3.53;;;;;;;-7.40;61.58;98505.78;6196814;28;20061;-69
2022/12/05 07:11:31;;;;;;;7.80;4.57;;;;;;;-7.52;61.54;98497.75;6196684;28;20057;-68
2022/12/05 07:14:39;;;;;;;9.02;4.45;;;;;;;-7.55;62.20;98507.88;6197258;28;20042;-66
2022/12/05 07:17:43;;;;;;;10.40;4.95;;;;;;;-7.57;62.09;98510.34;6196809;28;20054;-68
2022/12/05 07:20:57;;;;;;;11.95;4.40;;;;;;;-7.53;62.12;98511.31;6196323;28;20042;-67
2022/12/05 07:23:59;;;;;;;8.73;4.45;;;;;;;-7.62;61.91;98511.03;6195363;28;20641;-67
2022/12/05 07:27:05;;;;;;;7.25;4.22;;;;;;;-7.78;61.53;98514.78;6196970;28;20050;-67
2022/12/05 07:30:07;;;;;;;8.93;4.20;;;;;;;-7.82;62.09;98518.03;6196433;28;20532;-66
2022/12/05 07:33:11;;;;;;;9.02;4.90;;;;;;;-7.81;62.03;98514.66;6196899;28;20050;-67
2022/12/05 07:36:18;;;;;;;6.20;4.43;;;;;;;-7.80;61.35;98509.59;6196339;28;20053;-68
2022/12/05 07:39:22;;;;;;;9.02;4.82;;;;;;;-7.61;61.42;98533.19;6194934;28;20050;-67
2022/12/05 07:42:25;;;;;;;9.23;4.78;;;;;;;-7.64;61.70;98533.09;6194901;28;20062;-67
2022/12/05 07:45:29;;;;;;;8.40;5.55;;;;;;;-7.55;61.80;98541.09;6195215;28;20510;-67
2022/12/05 07:48:31;;;;;;;7.30;4.85;;;;;;;-7.54;61.12;98541.13;6195698;28;20050;-68
2022/12/05 07:51:34;;;;;;;8.13;4.28;;;;;;;-7.64;61.49;98538.22;6199200;28;20046;-67
2022/12/05 07:54:36;;;;;;;6.72;4.00;;;;;;;-7.66;61.19;98545.00;6201232;28;20437;-67
2022/12/05 07:57:39;;;;;;;7.32;4.03;;;;;;;-7.66;61.49;98550.97;6201216;28;20496;-67
2022/12/05 08:00:46;;;;;;;8.57;3.83;;;;;;;-7.60;61.17;98550.28;6183483;28;20061;-68
2022/12/05 08:03:51;;;;;;;9.70;3.75;;;;;;;-7.51;60.97;98556.56;6200976;28;20398;-67
2022/12/05 08:06:55;;;;;;;6.22;3.17;;;;;;;-7.42;61.24;98560.25;6201186;28;20093;-68
2022/12/05 08:09:59;;;;;;;6.30;3.85;;;;;;;-7.49;60.75;98559.19;6201101;28;20042;-68
2022/12/05 08:13:03;;;;;;;6.43;3.70;;;;;;;-7.48;60.99;98554.13;6200902;28;20042;-67
2022/12/05 08:16:10;;;;;;;6.32;4.45;;;;;;;-7.48;60.61;98564.34;6201120;28;20042;-67
2022/12/05 08:19:15;;;;;;;10.98;5.15;;;;;;;-7.53;60.84;98562.44;6200470;28;20420;-67
2022/12/05 08:22:19;;;;;;;9.40;5.25;;;;;;;-7.57;60.35;98576.81;6200903;28;20050;-67
2022/12/05 08:25:22;;;;;;;9.23;4.80;;;;;;;-7.51;60.44;98571.03;6200108;28;20442;-67
2022/12/05 08:28:29;;;;;;;10.98;4.82;;;;;;;-7.56;60.38;98559.78;6200834;28;20050;-68
2022/12/05 08:31:35;;;;;;;7.75;3.65;;;;;;;-7.49;60.78;98569.41;6200678;28;20047;-67
2022/12/05 08:34:36;;;;;;;8.13;4.68;;;;;;;-7.55;60.77;98569.22;6200629;28;20577;-68
2022/12/05 08:37:43;;;;;;;12.52;5.20;;;;;;;-7.58;60.39;98551.22;6200112;28;20053;-67
2022/12/05 08:40:49;;;;;;;11.35;6.07;;;;;;;-7.55;60.62;98564.09;6200422;28;20046;-67
2022/12/05 08:43:52;;;;;;;15.65;8.27;;;;;;;-7.59;60.65;98573.34;6200367;28;20046;-67
2022/12/05 08:46:56;;;;;;;17.55;7.75;;;;;;;-7.61;61.15;98569.00;6200146;28;20053;-66
2022/12/05 08:49:58;;;;;;;9.57;5.30;;;;;;;-7.64;61.19;98574.00;6182270;28;20057;-67
2022/12/05 08:53:01;;;;;;;16.45;7.95;;;;;;;-7.86;60.93;98557.09;6200347;28;20501;-68
2022/12/05 08:56:05;;;;;;;13.82;5.72;;;;;;;-7.65;60.80;98578.25;6199270;28;20054;-67
2022/12/05 08:59:06;;;;;;;13.05;6.60;;;;;;;-7.55;60.55;98579.44;6199216;28;20058;-67
2022/12/05 09:02:10;;;;;;;12.27;5.00;;;;;;;-7.40;60.71;98572.28;6199785;28;20425;-68
2022/12/05 09:05:14;;;;;;;9.88;5.30;;;;;;;-7.33;60.58;98581.91;6198805;28;20054;-67
2022/12/05 09:08:22;;;;;;;16.33;8.55;;;;;;;-7.25;60.05;98588.09;6199456;28;20054;-68
2022/12/05 09:11:30;;;;;;;27.27;13.48;;;;;;;-7.15;59.86;98588.44;6199612;28;20046;-67
2022/12/05 09:14:37;;;;;;;35.97;16.77;;;;;;;-7.30;60.11;98588.81;6199560;28;20042;-66
2022/12/05 09:17:44;;;;;;;32.45;15.27;;;;;;;-7.56;60.76;98585.34;6199321;28;20050;-68
2022/12/05 09:20:45;;;;;;;30.35;13.13;;;;;;;-7.65;60.98;98592.72;6199240;28;20034;-68
2022/12/05 09:23:51;;;;;;;21.25;8.65;;;;;;;-7.63;60.68;98601.31;6199210;28;20038;-66
2022/12/05 09:26:55;;;;;;;18.10;7.75;;;;;;;-7.64;61.28;98592.78;6199296;28;20053;-68
2022/12/05 09:29:56;;;;;;;9.85;4.70;;;;;;;-7.58;60.54;98593.00;6199101;28;20058;-69
2022/12/05 09:33:00;;;;;;;8.63;4.35;;;;;;;-7.69;60.79;98600.28;6198349;28;20559;-67
2022/12/05 09:36:11;;;;;;;10.45;5.50;;;;;;;-7.79;60.77;98595.66;6198782;28;20042;-67
2022/12/05 09:39:17;;;;;;;11.82;4.80;;;;;;;-7.87;61.13;98597.06;6199075;28;20046;-68
2022/12/05 09:42:48;;;;;;;11.68;5.93;;;;;;;-7.87;60.96;98602.19;6197985;28;20057;-68
2022/12/05 09:46:24;;;;;;;11.90;6.50;;;;;;;-7.84;60.81;98597.22;6198373;28;20425;-68
2022/12/05 09:49:26;;;;;;;12.82;6.57;;;;;;;-7.92;60.84;98591.81;6166963;28;20061;-67
2022/12/05 09:52:37;;;;;;;11.80;7.03;;;;;;;-8.00;60.95;98593.22;6198805;28;20053;-69
2022/12/05 09:55:46;;;;;;;16.40;7.68;;;;;;;-8.03;61.18;98599.91;6198915;28;20543;-68
2022/12/05 09:58:51;;;;;;;17.77;8.15;;;;;;;-8.01;60.98;98598.28;6198269;28;20061;-67
2022/12/05 10:02:02;;;;;;;17.33;8.05;;;;;;;-7.98;61.16;98600.94;6197894;28;20054;-68
2022/12/05 10:05:20;;;;;;;16.23;8.55;;;;;;;-7.95;60.80;98598.50;6198396;28;20513;-68
2022/12/05 10:08:50;;;;;;;21.98;6.75;;;;;;;-7.87;60.79;98601.31;6197772;28;20057;-69
2022/12/05 10:12:16;;;;;;;17.33;7.82;;;;;;;-7.89;60.74;98603.84;6198090;28;20141;-68
2022/12/05 10:15:32;;;;;;;18.60;7.65;;;;;;;-8.01;60.96;98608.50;6197815;28;20417;-67
2022/12/05 10:18:52;;;;;;;17.38;8.02;;;;;;;-8.04;60.33;98601.59;6197778;28;20062;-68
2022/12/05 10:22:03;;;;;;;16.10;7.72;;;;;;;-8.13;60.43;98609.78;6197681;28;20058;-69
2022/12/05 10:25:05;;;;;;;14.57;8.35;;;;;;;-8.17;60.57;98613.06;6196812;28;20904;-68
2022/12/05 10:28:38;;;;;;;15.90;7.93;;;;;;;-8.13;60.93;98614.88;6197586;28;20046;-68
2022/12/05 10:31:44;;;;;;;13.98;6.10;;;;;;;-8.24;60.72;98615.31;6196703;28;20054;-68
2022/12/05 10:34:53;;;;;;;11.25;6.90;;;;;;;-8.36;60.21;98610.63;6196590;28;20042;-69
2022/12/05 10:38:02;;;;;;;13.77;6.35;;;;;;;-8.50;60.86;98601.63;6197624;28;20042;-68
2022/12/05 10:41:09;;;;;;;16.73;6.30;;;;;;;-8.55;60.94;98615.88;6197399;28;20081;-68
2022/12/05 10:44:15;;;;;;;14.48;6.65;;;;;;;-8.70;60.56;98617.03;6197479;28;20482;-69
2022/12/05 10:47:16;;;;;;;12.98;7.88;;;;;;;-8.76;60.73;98619.34;6196587;28;20058;-66
2022/12/05 10:50:32;;;;;;;24.52;10.25;;;;;;;-9.13;60.62;98582.19;6197268;28;20042;-67
2022/12/05 10:53:50;;;;;;;21.13;9.82;;;;;;;-8.97;61.05;98618.50;6197217;28;20485;-67
2022/12/05 10:56:54;;;;;;;19.17;9.43;;;;;;;-9.09;60.91;98629.09;6196812;28;20434;-67
2022/12/05 11:00:12;;;;;;;22.80;10.18;;;;;;;-9.26;61.25;98625.84;6197328;28;20042;-67
2022/12/05 11:03:25;;;;;;;17.15;9.50;;;;;;;-9.35;61.48;98630.56;6196582;28;20057;-68
2022/12/05 11:06:31;;;;;;;17.25;9.77;;;;;;;-9.39;61.29;98639.78;6197137;28;20046;-68
2022/12/05 11:09:46;;;;;;;19.60;8.95;;;;;;;-9.37;61.54;98627.97;6197419;28;20038;-68
2022/12/05 11:12:50;;;;;;;21.17;8.50;;;;;;;-9.43;61.28;98631.94;6197184;28;20093;-68
2022/12/05 11:15:54;;;;;;;11.10;6.80;;;;;;;-9.51;61.38;98623.97;6196405;28;20085;-67
2022/12/05 11:18:56;;;;;;;9.05;5.00;;;;;;;-9.60;61.57;98634.63;6196994;28;20407;-67
2022/12/05 11:21:58;;;;;;;13.30;6.65;;;;;;;-9.65;61.33;98636.13;6196865;28;20038;-67
2022/12/05 11:25:20;;;;;;;16.30;7.43;;;;;;;-9.86;61.39;98622.47;6195242;28;20494;-68
2022/12/05 11:28:34;;;;;;;16.58;6.57;;;;;;;-9.90;61.64;98638.44;6195226;28;20058;-67
2022/12/05 11:31:38;;;;;;;9.05;4.97;;;;;;;-9.97;61.71;98634.72;6196735;28;20046;-68
2022/12/05 11:35:25;;;;;;;8.55;4.35;;;;;;;-10.12;61.26;98629.84;6196763;28;20089;-67
2022/12/05 11:38:33;;;;;;;10.40;4.50;;;;;;;-10.35;61.89;98633.06;6196604;28;20225;-68
2022/12/05 11:41:43;;;;;;;6.90;4.43;;;;;;;-10.33;61.93;98645.06;6195893;28;20189;-68
2022/12/05 11:44:56;;;;;;;14.77;6.50;;;;;;;-10.42;62.14;98657.34;6196102;28;20425;-68
2022/12/05 11:48:28;;;;;;;11.80;6.03;;;;;;;-10.40;62.14;98658.31;6196402;28;20046;-67
2022/12/05 11:51:46;;;;;;;7.93;5.43;;;;;;;-10.52;62.10;98653.53;6189576;28;20429;-68
2022/12/05 11:55:00;;;;;;;8.43;5.35;;;;;;;-10.60;62.22;98659.06;6196643;28;20042;-69
2022/12/05 11:58:38;;;;;;;16.70;7.47;;;;;;;-10.61;62.19;98660.75;6196050;28;20403;-67
2022/12/05 12:01:46;;;;;;;9.02;5.90;;;;;;;-10.67;62.20;98661.31;6196501;28;20125;-67
2022/12/05 12:04:59;;;;;;;11.32;5.90;;;;;;;-10.77;62.48;98664.22;6196062;28;20046;-67
2022/12/05 12:08:50;;;;;;;5.97;3.60;;;;;;;-10.73;62.69;98663.56;6195270;28;20042;-68
2022/12/05 12:12:11;;;;;;;11.98;5.00;;;;;;;-10.81;62.57;98664.00;6130429;28;20489;-68
2022/12/05 12:15:54;;;;;;;12.32;5.80;;;;;;;-10.80;62.86;98663.22;6196254;28;20043;-68
2022/12/05 12:19:38;;;;;;;9.73;4.07;;;;;;;-10.71;62.62;98668.72;6108985;28;20050;-68
2022/12/05 12:23:15;;;;;;;12.75;4.13;;;;;;;-10.92;62.89;98669.47;6179267;28;20128;-68
2022/12/05 12:26:25;;;;;;;8.43;4.82;;;;;;;-10.99;62.66;98687.75;6195413;28;20057;-68
2022/12/05 12:29:32;;;;;;;10.05;4.43;;;;;;;-11.09;63.01;98680.47;6196104;28;20063;-68
2022/12/05 12:33:01;;;;;;;7.88;4.45;;;;;;;-11.03;63.16;98679.91;6195872;28;20050;-67
2022/12/05 12:36:27;;;;;;;8.27;4.65;;;;;;;-11.09;62.85;98685.56;6195721;28;20051;-68
2022/12/05 12:40:12;;;;;;;9.82;5.70;;;;;;;-11.10;62.85;98687.22;6200175;28;20050;-68
2022/12/05 12:43:43;;;;;;;9.75;5.57;;;;;;;-11.13;63.11;98686.19;6128354;28;20044;-68
2022/12/05 12:47:02;;;;;;;8.70;4.95;;;;;;;-11.16;63.04;98681.84;6200219;28;20042;-67
2022/12/05 12:50:03;;;;;;;10.88;6.38;;;;;;;-11.11;62.70;98682.94;6200168;28;20124;-67
2022/12/05 12:53:16;;;;;;;8.63;4.05;;;;;;;-11.10;63.03;98683.81;6199726;28;20097;-67
2022/12/05 12:56:37;;;;;;;16.55;7.55;;;;;;;-11.23;62.94;98686.56;6199913;28;20046;-67
2022/12/05 12:59:46;;;;;;;13.35;7.72;;;;;;;-11.28;63.06;98688.00;6200058;28;20046;-68
2022/12/05 13:02:56;;;;;;;15.27;8.23;;;;;;;-11.25;63.36;98695.78;6199842;28;20069;-67
2022/12/05 13:06:16;;;;;;;14.35;7.03;;;;;;;-11.18;63.33;98700.34;6199775;28;20046;-68
2022/12/05 13:09:27;;;;;;;13.90;7.80;;;;;;;-11.30;62.86;98691.31;6199329;28;20042;-68
2022/12/05 13:12:34;;;;;;;10.40;6.28;;;;;;;-11.38;62.91;98692.63;6199370;28;20050;-68
2022/12/05 13:15:40;;;;;;;10.27;4.38;;;;;;;-11.41;63.12;98691.56;6214423;28;20042;-68
2022/12/05 13:18:47;;;;;;;13.65;5.78;;;;;;;-11.65;63.11;98684.47;6199115;28;20062;-68
2022/12/05 13:21:56;;;;;;;9.95;5.82;;;;;;;-11.81;62.91;98685.34;6199141;28;20453;-69
2022/12/05 13:24:57;;;;;;;9.00;5.15;;;;;;;-11.90;63.28;98695.06;6199351;28;20038;-69
2022/12/05 13:28:04;;;;;;;10.68;6.05;;;;;;;-12.03;63.17;98700.28;6198195;28;20189;-68
2022/12/05 13:31:09;;;;;;;7.05;5.13;;;;;;;-12.09;62.79;98707.56;6199249;28;20501;-69
2022/12/05 13:34:25;;;;;;;13.25;5.88;;;;;;;-12.12;63.07;98707.41;6199195;28;20054;-68
2022/12/05 13:44:14;;;;;;;12.73;7.13;;;;;;;-12.29;62.97;98698.91;6197976;28;20050;-69
2022/12/05 13:47:38;;;;;;;12.35;7.93;;;;;;;-12.34;63.06;98705.38;6198725;28;20046;-68
2022/12/05 13:51:09;;;;;;;12.57;5.80;;;;;;;-12.34;63.42;98713.91;6198584;28;20533;-68
2022/12/05 13:54:27;;;;;;;17.77;8.55;;;;;;;-12.32;63.39;98709.75;6198468;28;20196;-67
2022/12/05 13:57:38;;;;;;;21.48;9.30;;;;;;;-12.21;63.21;98717.94;6197813;28;20133;-69
2022/12/05 14:00:39;;;;;;;20.83;8.77;;;;;;;-12.16;62.59;98713.13;6198574;28;20042;-68
2022/12/05 14:03:49;;;;;;;21.58;10.65;;;;;;;-12.08;62.93;98714.41;6198067;28;20567;-69
2022/12/05 14:06:56;;;;;;;20.88;10.30;;;;;;;-12.05;62.61;98720.50;6198422;28;20042;-69
2022/12/05 14:09:58;;;;;;;20.02;10.77;;;;;;;-11.93;62.76;98710.13;6197684;28;20061;-68
2022/12/05 14:13:22;;;;;;;19.40;10.05;;;;;;;-12.04;62.46;98711.22;6197686;28;20050;-68
2022/12/05 14:16:29;;;;;;;13.52;7.78;;;;;;;-12.04;62.87;98716.31;6198104;28;20518;-69
2022/12/05 14:19:49;;;;;;;13.80;7.25;;;;;;;-12.11;62.95;98719.31;6197819;28;20145;-69
2022/12/05 14:23:10;;;;;;;13.82;7.35;;;;;;;-12.10;62.63;98711.78;6197897;28;20042;-68
2022/12/05 14:26:31;;;;;;;18.38;8.85;;;;;;;-12.04;62.90;98721.38;6198060;28;20122;-68
2022/12/05 14:29:59;;;;;;;18.42;9.23;;;;;;;-12.10;62.83;98714.31;6197072;28;20058;-68
2022/12/05 14:33:01;;;;;;;12.93;8.23;;;;;;;-12.22;63.12;98711.13;6184754;28;20524;-68
2022/12/05 14:36:18;;;;;;;15.63;8.90;;;;;;;-12.31;63.28;98710.63;6197767;28;20042;-69
2022/12/05 14:39:32;;;;;;;6.10;4.03;;;;;;;-12.34;63.45;98710.47;6197536;28;20140;-68
2022/12/05 14:43:04;;;;;;;16.80;6.53;;;;;;;-12.38;63.31;98709.44;6197540;28;20466;-68
2022/12/05 14:46:30;;;;;;;9.43;4.68;;;;;;;-12.19;63.21;98702.81;6181943;28;20050;-69
2022/12/05 14:49:52;;;;;;;16.67;8.52;;;;;;;-12.22;62.95;98696.78;6197657;28;20049;-69
2022/12/05 14:53:20;;;;;;;20.05;8.25;;;;;;;-12.52;63.67;98703.59;6196540;28;20050;-69
2022/12/05 14:56:26;;;;;;;11.18;5.65;;;;;;;-12.60;63.53;98709.91;6179878;28;20432;-68
2022/12/05 14:59:42;;;;;;;9.38;4.55;;;;;;;-12.57;63.97;98711.75;6196239;28;20050;-68